»·PEaware :: N623JB KSNA-KAVX

N623JB :: KSNA-KAVX

FLIGHT INFORMATION

Flight Status: Arrived
Operator: Privately registered:
United States
More flights under this callsign
Pilot: Jonathan B. (32222)
Aircraft: CIRRUS SR-22
(SR22)
More flights by this aircraft type
Origin: KSNA John Wayne-Orange Co
United States
Destination: KAVX Catalina
United States
More flights between these airports :: More routes between these airports
Route: SLI V21 SXC
File this flight plan on PilotEdge
Remarks:
Altitude:
(Current/Filed)
4,000ft
Speed:
(Current/Filed)
140kts
Departed: 01-Dec-20 10:03 AM
Arrived: 01-Dec-20 10:34 AM
Distance/Time
Traveled:
6774nm/0:31
Distance/Time
To Go:
Arrived

Flight Plot

Page will automatically refresh every two minutes.


Map Options




Map Legend


Flown Route
Filed Route
Departure Airport
Arrival Airport
Navaid (VOR, NDB)
Fix

Horizontal Profiles

Position Reports

Time Latitude Longitude Heading Altitude Ground
Speed
01-Dec-20 09:37 33.675794 -117.870928 359 54ft 0kts
01-Dec-20 09:38 33.675794 -117.870928 359 54ft 0kts
01-Dec-20 09:39 33.675794 -117.870928 359 54ft 0kts
01-Dec-20 09:40 33.675794 -117.870928 359 54ft 0kts
01-Dec-20 09:41 33.675794 -117.870928 359 54ft 0kts
01-Dec-20 09:42 33.675794 -117.870928 359 54ft 0kts
01-Dec-20 09:43 33.675794 -117.870928 359 54ft 0kts
01-Dec-20 09:44 33.675794 -117.870928 359 54ft 0kts
01-Dec-20 09:45 33.675794 -117.870928 359 54ft 0kts
01-Dec-20 09:46 33.675794 -117.870928 359 54ft 0kts
01-Dec-20 09:47 33.675794 -117.870928 359 54ft 0kts
01-Dec-20 09:48 33.675794 -117.870928 359 54ft 0kts
01-Dec-20 09:49 33.675794 -117.870928 359 54ft 0kts
01-Dec-20 09:50 33.675794 -117.870928 359 54ft 0kts
01-Dec-20 09:51 33.675794 -117.870928 359 54ft 0kts
01-Dec-20 09:52 33.675794 -117.870928 359 54ft 0kts
01-Dec-20 09:54 33.675794 -117.870928 359 54ft 0kts
01-Dec-20 09:54 33.675794 -117.870928 359 54ft 0kts
01-Dec-20 09:55 33.675794 -117.870928 359 54ft 0kts
01-Dec-20 09:56 33.675794 -117.870928 359 54ft 0kts
01-Dec-20 09:57 33.676646 -117.869739 28 54ft 10kts
01-Dec-20 09:58 33.680301 -117.867591 26 44ft 18kts
01-Dec-20 09:59 33.681228 -117.866482 116 43ft 0kts
01-Dec-20 10:00 33.681228 -117.866482 116 43ft 0kts
01-Dec-20 10:01 33.680423 -117.865882 207 44ft 20kts
01-Dec-20 10:02 33.660125 -117.881919 219 937ft 105kts
01-Dec-20 10:03 33.639457 -117.911097 230 1924ft 140kts
01-Dec-20 10:04 33.611850 -117.949979 230 1987ft 151kts
01-Dec-20 10:05 33.587050 -117.988179 232 2000ft 142kts
01-Dec-20 10:06 33.568092 -118.026950 242 2430ft 123kts
01-Dec-20 10:07 33.549882 -118.061515 238 3254ft 127kts
01-Dec-20 10:08 33.530707 -118.098286 238 3919ft 138kts
01-Dec-20 10:09 33.510336 -118.137246 237 4002ft 136kts
01-Dec-20 10:10 33.490032 -118.175362 231 4037ft 136kts
01-Dec-20 10:11 33.467163 -118.211880 235 4039ft 137kts
01-Dec-20 10:12 33.443873 -118.248250 231 4039ft 137kts
01-Dec-20 10:13 33.420854 -118.284742 232 4039ft 137kts
01-Dec-20 10:14 33.397668 -118.321172 232 4039ft 137kts
01-Dec-20 10:15 33.374185 -118.357446 231 4040ft 138kts
01-Dec-20 10:16 33.352341 -118.394950 260 4028ft 138kts
01-Dec-20 10:17 33.381032 -118.419503 15 3427ft 141kts
01-Dec-20 10:18 33.415600 -118.415560 2 3438ft 115kts
01-Dec-20 10:19 33.447337 -118.411346 9 3438ft 115kts
01-Dec-20 10:20 33.479592 -118.406966 10 3439ft 118kts
01-Dec-20 10:21 33.512554 -118.402497 5 3439ft 120kts
01-Dec-20 10:22 33.546016 -118.399511 347 3439ft 121kts
01-Dec-20 10:23 33.572602 -118.424645 319 3439ft 122kts
01-Dec-20 10:24 33.598449 -118.432435 86 3443ft 118kts
01-Dec-20 10:25 33.574815 -118.409266 176 3438ft 123kts
01-Dec-20 10:26 33.540438 -118.402212 171 3269ft 135kts
01-Dec-20 10:27 33.503011 -118.400633 180 2565ft 133kts
01-Dec-20 10:28 33.468765 -118.404175 184 2351ft 113kts
01-Dec-20 10:29 33.437933 -118.409604 186 2341ft 110kts
01-Dec-20 10:30 33.409308 -118.418575 226 2346ft 98kts
01-Dec-20 10:31 33.396545 -118.439905 145 2083ft 85kts
01-Dec-20 10:32 33.403349 -118.418615 52 1600ft 63kts
01-Dec-20 10:33 33.404969 -118.415127 161 1572ft 0kts
01-Dec-20 10:34 33.403710 -118.416142 261 1584ft 14kts
01-Dec-20 10:35 33.403360 -118.416979 226 1582ft 0kts
01-Dec-20 10:36 33.403360 -118.416979 226 1582ft 0kts
01-Dec-20 10:37 0.000408 0.013975 0 3ft 0kts
01-Dec-20 10:38 0.000408 0.013975 0 3ft 0kts
01-Dec-20 10:39 0.000408 0.013975 0 3ft 0kts
01-Dec-20 10:40 0.000408 0.013975 0 3ft 0kts
01-Dec-20 10:41 0.000408 0.013975 0 3ft 0kts

Navigation Log

Ident Type
Flight plan parsing failed, navigation log unavailable